Port St. Lucie, FL

9:28 AM EDT on August 20, 2014 (GMT -0400)
SFWMD SVWX | Change Station
CLOSE
Current Station
Personal Weather Station
Location: Port Saint Lucie, FL
Elevation: 13 ft
Nearby Weather Stations

Elev 13 ft 27.29 °N, 80.25 °W | Updated 28 minutes ago

Clear
Clear
82 °F
Feels Like 89 °F
N
4
Wind Variable Wind from NW
Gusts 6.0 mph

Today
High -- | Low -- °F
--% Chance of Precip.
Yesterday
High -- | Low -- °F
Precip. -- in
6:54 AM 7:53 PM
Waning Crescent, 21% visible
Pressure 30.08 in
Visibility 7.0 miles
Clouds Clear
Heat Index 89 °F
Dew Point 76 °F
Humidity 81%
Rainfall -999.00 in
Snow Depth Not available.
UV 2 out of 12
Pollen 4.90 out of 12
Air Quality Not available.
Flu Activity Not available.
METAR KSUA 201247Z 00000KT 7SM SKC 28/24 A3008

More Conditions Fewer Conditions

Pressure 30.08 in
Visibility 7.0 miles
Clouds Clear
Heat Index 89 °F
Dew Point 76 °F
Humidity 81%
Rainfall -999.00 in
Snow Depth Not available.
UV 2 out of 12
Pollen 4.90 out of 12
Air Quality Not available.
Flu Activity Not available.
METAR KSUA 201247Z 00000KT 7SM SKC 28/24 A3008

More Conditions Fewer Conditions

10-Day Weather Forecast

Almanac

Astronomy

Aug. 20, 2014 Rise Set
Actual Time 6:54 AM EDT 7:53 PM EDT
Civil Twilight 6:30 AM EDT 8:17 PM EDT
Nautical Twilight 6:01 AM EDT 8:46 PM EDT
Astronomical Twilight 5:32 AM EDT 9:15 PM EDT
Moon 2:42 AM EDT 4:28 PM EDT
Length of Visible Light 13h 47m
Length of Day
12h 59m
Tomorrow will be 1m 27s shorter.
Waning Crescent, 21% of the Moon is Illuminated
Today
Waning Crescent
Aug 25
New
Sep 2
First Quarter
Sep 8
Full
Sep 15
Last Quarter

Today's Extremes

State Highs State Lows

Community

WunderPhotos

Upload Photos

1,745,623 photos uploaded!

WunderBlogs® & News

By Dr. Jeff Masters
Director of Meteorology, Weather Underground
By Kari Strenfel
Meteorologist, Weather Underground
By Christopher C. Burt
Weather Historian, Weather Underground
August 20, 2014
August 20, 2014
August 20, 2014

Nearby

Snow Depth

Station Depth Elevation
No new snow has been reported.

Earthquake Activity

City Distance Mag. Time & Date
No recent earthquake activity has been reported nearby.
Minimum magnitude displayed is 2.5.

Coastal Water Temperatures

Place Temperature
Lake Worth, FL 86.0 °F
Trident Pier, FL 82.9 °F
Virginia Key, FL 88.0 °F

Nearby Weather Stations